KMLB

Melbourne International Airport

Melbourne, Florida, USA
KMLB 181126Z 1812/1912 03004KT P6SM SCT020 SCT250 FM181400 08009KT P6SM SCT025 SCT040 FM190100 10005KT P6SM FEW040
Issued Valid From Valid To
Jun-18 @ 11:26 UTC
(2 hours ago)
Jun-18 @ 12:00 UTC
(an hour ago)
Jun-19 @ 12:00 UTC
(in 23 hours)
Jun-18 @ 12:00 to Jun-18 @ 14:00
KMLB 181126Z 1812/1912 03004KT P6SM SCT020 SCT250
Wind Visibility Clouds
30° at 4 knots Greater than 6 miles
  • Scattered at 2,000' AGL
  • Scattered at 25,000' AGL
From Jun-18 @ 14:00 to Jun-19 @ 01:00
FM181400 08009KT P6SM SCT025 SCT040
Wind Visibility Clouds
80° at 9 knots Greater than 6 miles
  • Scattered at 2,500' AGL
  • Scattered at 4,000' AGL
From Jun-19 @ 01:00 to Jun-19 @ 12:00
FM190100 10005KT P6SM FEW040
Wind Visibility Clouds
100° at 5 knots Greater than 6 miles
  • Few at 4,000' AGL
KMLB 181126Z 1812/1912 03004KT P6SM SCT020 SCT250 FM181400 08009KT P6SM SCT025 SCT040 FM190100 10005KT P6SM FEW040
Issued Jun-18 @ 11:26 UTC
(2 hours ago)
Valid From Jun-18 @ 12:00 UTC
(an hour ago)
Valid To Jun-19 @ 12:00 UTC
(in 23 hours)
Jun-18 @ 12:00 - Jun-18 @ 14:00
Wind Visibility
30° at 4 knots Greater than 6 miles
Clouds
  • Scattered at 2,000' AGL
  • Scattered at 25,000' AGL
From Jun-18 @ 14:00 - Jun-19 @ 01:00
Wind Visibility
80° at 9 knots Greater than 6 miles
Clouds
  • Scattered at 2,500' AGL
  • Scattered at 4,000' AGL
From Jun-19 @ 01:00 - Jun-19 @ 12:00
Wind Visibility
100° at 5 knots Greater than 6 miles
Clouds
  • Few at 4,000' AGL